| time (UTC) | temp F | wind direction | speed knots | gust knots | rain 1hr in | rain 24hr in | rain mn in | humidity % | barometer mb |
| 20260507013452 | 61 | 3 | 2.6 | 4.3 | 0.00 | 0.00 | 0.00 | 83 | 1010.0 |
| 20260507012951 | 61 | 3 | 2.6 | 4.3 | 0.00 | 0.00 | 0.00 | 83 | 1011.0 |
| 20260507012450 | 61 | 3 | 2.6 | 4.3 | 0.00 | 0.00 | 0.00 | 83 | 1011.0 |
| 20260507011949 | 61 | 3 | 2.6 | 4.3 | 0.00 | 0.00 | 0.00 | 83 | 1011.0 |
| 20260507011449 | 61 | 3 | 2.6 | 4.3 | 0.00 | 0.00 | 0.00 | 83 | 1011.0 |
| 20260507010948 | 61 | 3 | 2.6 | 4.3 | 0.00 | 0.00 | 0.00 | 83 | 1011.0 |
| 20260507010447 | 61 | 3 | 2.6 | 4.3 | 0.00 | 0.00 | 0.00 | 83 | 1011.0 |
| 20260507005946 | 61 | 3 | 2.6 | 4.3 | 0.00 | 0.00 | 0.00 | 83 | 1011.0 |
| 20260507005445 | 61 | 3 | 2.6 | 4.3 | 0.00 | 0.00 | 0.00 | 83 | 1011.0 |
| 20260507004944 | 61 | 3 | 2.6 | 4.3 | 0.00 | 0.00 | 0.00 | 83 | 1011.0 |
| 20260507004443 | 62 | 3 | 2.6 | 4.3 | 0.00 | 0.00 | 0.00 | 83 | 1011.0 |
| 20260507003942 | 62 | 3 | 2.6 | 4.3 | 0.00 | 0.00 | 0.00 | 83 | 1011.0 |
| 20260507003442 | 62 | 3 | 2.6 | 4.3 | 0.00 | 0.00 | 0.00 | 83 | 1011.0 |
| 20260507002941 | 62 | 3 | 2.6 | 4.3 | 0.00 | 0.00 | 0.00 | 83 | 1011.0 |
| 20260507002440 | 62 | 3 | 2.6 | 4.3 | 0.00 | 0.00 | 0.00 | 83 | 1011.0 |
| 20260507001939 | 62 | 3 | 2.6 | 4.3 | 0.00 | 0.00 | 0.00 | 83 | 1011.0 |
| 20260507001438 | 62 | 3 | 2.6 | 4.3 | 0.00 | 0.00 | 0.00 | 83 | 1011.0 |
| 20260507000937 | 62 | 3 | 2.6 | 4.3 | 0.00 | 0.00 | 0.00 | 83 | 1011.0 |
| 20260507000436 | 62 | 3 | 2.6 | 4.3 | 0.00 | 0.00 | 0.00 | 83 | 1011.0 |
| 20260506235935 | 62 | 3 | 2.6 | 4.3 | 0.00 | 0.00 | 0.00 | 83 | 1011.0 |
| 20260506235434 | 62 | 3 | 2.6 | 4.3 | 0.00 | 0.00 | 0.00 | 83 | 1011.0 |
| 20260506234934 | 62 | 3 | 2.6 | 4.3 | 0.00 | 0.00 | 0.00 | 83 | 1011.0 |
| 20260506234433 | 62 | 3 | 2.6 | 4.3 | 0.00 | 0.00 | 0.00 | 83 | 1011.0 |
| 20260506233932 | 62 | 3 | 2.6 | 4.3 | 0.00 | 0.00 | 0.00 | 83 | 1011.0 |
| 20260506233431 | 62 | 3 | 2.6 | 4.3 | 0.00 | 0.00 | 0.00 | 83 | 1012.0 |
| 20260506232930 | 62 | 3 | 2.6 | 4.3 | 0.00 | 0.00 | 0.00 | 83 | 1012.0 |
| 20260506232429 | 62 | 3 | 2.6 | 4.3 | 0.00 | 0.00 | 0.00 | 83 | 1012.0 |
| 20260506231928 | 62 | 3 | 2.6 | 4.3 | 0.00 | 0.00 | 0.00 | 83 | 1012.0 |
| 20260506231427 | 62 | 23 | 0.9 | 3.5 | 0.00 | 0.00 | 0.00 | 83 | 1012.0 |
| 20260506230926 | 62 | 23 | 0.9 | 3.5 | 0.00 | 0.00 | 0.00 | 83 | 1012.0 |
| 20260506230426 | 62 | 23 | 0.9 | 3.5 | 0.00 | 0.00 | 0.00 | 83 | 1012.0 |
| 20260506225925 | 62 | 19 | 0.9 | 3.5 | 0.00 | 0.00 | 0.00 | 83 | 1012.0 |
| 20260506225424 | 62 | 19 | 0.9 | 3.5 | 0.00 | 0.00 | 0.00 | 83 | 1012.0 |
| 20260506181205 | 67 | 80 | 12.2 | 0.0 | 0.00 | 0.00 | 0.00 | 69 | 1011.0 |
| 20260506180704 | 67 | 80 | 12.2 | 0.0 | 0.00 | 0.00 | 0.00 | 69 | 1011.0 |
| 20260506180203 | 67 | 80 | 12.2 | 0.0 | 0.00 | 0.00 | 0.00 | 68 | 1011.0 |
| 20260506175702 | 67 | 80 | 12.2 | 0.0 | 0.00 | 0.00 | 0.00 | 68 | 1011.0 |
| 20260506175201 | 67 | 80 | 12.2 | 0.0 | 0.00 | 0.00 | 0.00 | 68 | 1011.0 |
| 20260506174700 | 67 | 80 | 12.2 | 0.0 | 0.00 | 0.00 | 0.00 | 68 | 1011.0 |
| 20260506173658 | 67 | 80 | 12.2 | 0.0 | 0.00 | 0.00 | 0.00 | 68 | 1011.0 |
| 20260506173157 | 67 | 80 | 12.2 | 0.0 | 0.00 | 0.00 | 0.00 | 68 | 1011.0 |
| 20260506172656 | 67 | 80 | 12.2 | 0.0 | 0.00 | 0.00 | 0.00 | 68 | 1010.0 |
| 20260506172155 | 68 | 80 | 12.2 | 0.0 | 0.00 | 0.00 | 0.00 | 68 | 1010.0 |
| 20260506171654 | 68 | 80 | 12.2 | 0.0 | 0.00 | 0.00 | 0.00 | 68 | 1010.0 |
| 20260506171153 | 68 | 80 | 12.2 | 0.0 | 0.00 | 0.00 | 0.00 | 69 | 1010.0 |
| 20260506170652 | 68 | 80 | 12.2 | 0.0 | 0.00 | 0.00 | 0.00 | 69 | 1010.0 |
| 20260506170151 | 68 | 80 | 12.2 | 0.0 | 0.00 | 0.00 | 0.00 | 66 | 1010.0 |
| 20260506165650 | 68 | 80 | 12.2 | 0.0 | 0.00 | 0.00 | 0.00 | 66 | 1010.0 |
| 20260506165149 | 68 | 80 | 12.2 | 0.0 | 0.00 | 0.00 | 0.00 | 66 | 1010.0 |
| 20260506164648 | 68 | 80 | 12.2 | 0.0 | 0.00 | 0.00 | 0.00 | 66 | 1010.0 |
| 20260506164147 | 69 | 80 | 12.2 | 0.0 | 0.00 | 0.00 | 0.00 | 67 | 1010.0 |
| 20260506163646 | 69 | 80 | 12.2 | 0.0 | 0.00 | 0.00 | 0.00 | 67 | 1010.0 |
| 20260506163145 | 69 | 80 | 12.2 | 0.0 | 0.00 | 0.00 | 0.00 | 67 | 1010.0 |
| 20260506162644 | 69 | 80 | 12.2 | 0.0 | 0.00 | 0.00 | 0.00 | 67 | 1010.0 |
| 20260506162143 | 69 | 80 | 12.2 | 0.0 | 0.00 | 0.00 | 0.00 | 68 | 1010.0 |
| 20260506161642 | 69 | 80 | 12.2 | 0.0 | 0.00 | 0.00 | 0.00 | 68 | 1010.0 |
| 20260506161141 | 69 | 70 | 11.3 | 0.0 | 0.00 | 0.00 | 0.00 | 70 | 1010.0 |
| 20260506160640 | 69 | 70 | 11.3 | 0.0 | 0.00 | 0.00 | 0.00 | 70 | 1010.0 |
| 20260506160139 | 69 | 70 | 11.3 | 0.0 | 0.00 | 0.00 | 0.00 | 70 | 1010.0 |
| 20260506155638 | 69 | 70 | 11.3 | 0.0 | 0.00 | 0.00 | 0.00 | 70 | 1010.0 |
| 20260506155137 | 69 | 70 | 11.3 | 0.0 | 0.00 | 0.00 | 0.00 | 69 | 1010.0 |
| 20260506154637 | 69 | 70 | 11.3 | 0.0 | 0.00 | 0.00 | 0.00 | 69 | 1010.0 |
| 20260506154135 | 70 | 70 | 11.3 | 0.0 | 0.00 | 0.00 | 0.00 | 68 | 1010.0 |
| 20260506153635 | 70 | 70 | 11.3 | 0.0 | 0.00 | 0.00 | 0.00 | 68 | 1010.0 |
| 20260506153133 | 70 | 70 | 11.3 | 0.0 | 0.00 | 0.00 | 0.00 | 67 | 1010.0 |
| 20260506152132 | 70 | 70 | 11.3 | 0.0 | 0.00 | 0.00 | 0.00 | 67 | 1010.0 |
| 20260506151631 | 70 | 70 | 11.3 | 0.0 | 0.00 | 0.00 | 0.00 | 67 | 1010.0 |
| 20260506151130 | 70 | 70 | 11.3 | 0.0 | 0.00 | 0.00 | 0.00 | 67 | 1010.0 |
| 20260506150629 | 71 | 70 | 11.3 | 0.0 | 0.00 | 0.00 | 0.00 | 67 | 1010.0 |
| 20260506150128 | 71 | 70 | 11.3 | 0.0 | 0.00 | 0.00 | 0.00 | 67 | 1010.0 |
| 20260506145627 | 71 | 70 | 11.3 | 0.0 | 0.00 | 0.00 | 0.00 | 66 | 1010.0 |
| 20260506145126 | 71 | 70 | 11.3 | 0.0 | 0.00 | 0.00 | 0.00 | 66 | 1010.0 |
| 20260506144625 | 70 | 70 | 11.3 | 0.0 | 0.00 | 0.00 | 0.00 | 66 | 1010.0 |
| 20260506144124 | 70 | 70 | 11.3 | 0.0 | 0.00 | 0.00 | 0.00 | 66 | 1010.0 |
| 20260506143623 | 70 | 70 | 11.3 | 0.0 | 0.00 | 0.00 | 0.00 | 64 | 1010.0 |
| 20260506143122 | 71 | 70 | 11.3 | 0.0 | 0.00 | 0.00 | 0.00 | 60 | 1010.0 |
| 20260506142621 | 71 | 70 | 11.3 | 0.0 | 0.00 | 0.00 | 0.00 | 60 | 1010.0 |
| 20260506142120 | 71 | 70 | 11.3 | 0.0 | 0.00 | 0.00 | 0.00 | 60 | 1010.0 |
| 20260506141619 | 71 | 70 | 11.3 | 0.0 | 0.00 | 0.00 | 0.00 | 60 | 1010.0 |
| 20260506141118 | 70 | 91 | 11.3 | 18.2 | 0.00 | 0.00 | 0.00 | 64 | 1010.0 |
| 20260506140617 | 70 | 91 | 11.3 | 18.2 | 0.00 | 0.00 | 0.00 | 64 | 1010.0 |
| 20260506140116 | 71 | 160 | 11.3 | 0.0 | 0.00 | 0.00 | 0.00 | 63 | 1010.0 |
| 20260506135615 | 71 | 160 | 11.3 | 0.0 | 0.00 | 0.00 | 0.00 | 63 | 1010.0 |
| 20260506135114 | 71 | 160 | 11.3 | 0.0 | 0.00 | 0.00 | 0.00 | 63 | 1010.0 |
| 20260506134112 | 72 | 160 | 11.3 | 0.0 | 0.00 | 0.00 | 0.00 | 62 | 1010.0 |
| 20260506133611 | 72 | 160 | 11.3 | 0.0 | 0.00 | 0.00 | 0.00 | 62 | 1010.0 |
| 20260506133110 | 72 | 160 | 11.3 | 0.0 | 0.00 | 0.00 | 0.00 | 61 | 1010.0 |
| 20260506132609 | 72 | 160 | 11.3 | 0.0 | 0.00 | 0.00 | 0.00 | 61 | 1010.0 |
| 20260506132108 | 73 | 160 | 11.3 | 0.0 | 0.00 | 0.00 | 0.00 | 60 | 1011.0 |
| 20260506131607 | 73 | 160 | 11.3 | 0.0 | 0.00 | 0.00 | 0.00 | 60 | 1011.0 |
| 20260506131106 | 73 | 160 | 11.3 | 0.0 | 0.00 | 0.00 | 0.00 | 60 | 1010.0 |
| 20260506130605 | 73 | 160 | 11.3 | 0.0 | 0.00 | 0.00 | 0.00 | 59 | 1010.0 |
| 20260506130104 | 73 | 160 | 11.3 | 0.0 | 0.00 | 0.00 | 0.00 | 59 | 1010.0 |
| 20260506125603 | 73 | 160 | 11.3 | 0.0 | 0.00 | 0.00 | 0.00 | 59 | 1010.0 |
| 20260506125102 | 73 | 160 | 11.3 | 0.0 | 0.00 | 0.00 | 0.00 | 59 | 1010.0 |
| 20260506124601 | 73 | 160 | 11.3 | 0.0 | 0.00 | 0.00 | 0.00 | 56 | 1010.0 |
| 20260506124100 | 73 | 160 | 11.3 | 0.0 | 0.00 | 0.00 | 0.00 | 56 | 1010.0 |
| 20260506123559 | 73 | 160 | 11.3 | 0.0 | 0.00 | 0.00 | 0.00 | 60 | 1010.0 |
| 20260506123058 | 73 | 160 | 11.3 | 0.0 | 0.00 | 0.00 | 0.00 | 60 | 1010.0 |
| 20260506122557 | 73 | 160 | 11.3 | 0.0 | 0.00 | 0.00 | 0.00 | 60 | 1010.0 |
| 20260506122056 | 72 | 160 | 11.3 | 0.0 | 0.00 | 0.00 | 0.00 | 59 | 1011.0 |
| 20260506121555 | 72 | 160 | 11.3 | 0.0 | 0.00 | 0.00 | 0.00 | 59 | 1011.0 |
| 20260506121054 | 72 | 160 | 11.3 | 0.0 | 0.00 | 0.00 | 0.00 | 55 | 1011.0 |
| 20260506120553 | 72 | 160 | 11.3 | 0.0 | 0.00 | 0.00 | 0.00 | 52 | 1010.0 |
| 20260506120052 | 72 | 160 | 11.3 | 0.0 | 0.00 | 0.00 | 0.00 | 52 | 1010.0 |
| 20260506115551 | 72 | 160 | 11.3 | 0.0 | 0.00 | 0.00 | 0.00 | 53 | 1010.0 |
| 20260506115050 | 72 | 160 | 11.3 | 0.0 | 0.00 | 0.00 | 0.00 | 53 | 1010.0 |
| 20260506114550 | 72 | 160 | 11.3 | 0.0 | 0.00 | 0.00 | 0.00 | 56 | 1010.0 |
| 20260506114049 | 72 | 160 | 11.3 | 0.0 | 0.00 | 0.00 | 0.00 | 56 | 1010.0 |
| 20260506113548 | 72 | 160 | 11.3 | 0.0 | 0.00 | 0.00 | 0.00 | 56 | 1010.0 |
| 20260506113047 | 72 | 160 | 11.3 | 0.0 | 0.00 | 0.00 | 0.00 | 56 | 1010.0 |
| 20260506112546 | 72 | 160 | 11.3 | 0.0 | 0.00 | 0.00 | 0.00 | 55 | 1011.0 |
| 20260506112045 | 73 | 160 | 11.3 | 0.0 | 0.00 | 0.00 | 0.00 | 55 | 1011.0 |
| 20260506111544 | 73 | 160 | 11.3 | 0.0 | 0.00 | 0.00 | 0.00 | 55 | 1011.0 |
| 20260506111043 | 72 | 160 | 11.3 | 0.0 | 0.00 | 0.00 | 0.00 | 53 | 1011.0 |
| 20260506110542 | 72 | 160 | 11.3 | 0.0 | 0.00 | 0.00 | 0.00 | 53 | 1011.0 |
| 20260506110041 | 72 | 160 | 11.3 | 0.0 | 0.00 | 0.00 | 0.00 | 53 | 1011.0 |
| 20260506105540 | 72 | 160 | 11.3 | 0.0 | 0.00 | 0.00 | 0.00 | 54 | 1011.0 |
| 20260506105039 | 72 | 160 | 11.3 | 0.0 | 0.00 | 0.00 | 0.00 | 54 | 1011.0 |
| 20260506104538 | 71 | 160 | 11.3 | 0.0 | 0.00 | 0.00 | 0.00 | 55 | 1011.0 |
| 20260506104037 | 71 | 160 | 11.3 | 0.0 | 0.00 | 0.00 | 0.00 | 55 | 1011.0 |
| 20260506103536 | 71 | 160 | 11.3 | 0.0 | 0.00 | 0.00 | 0.00 | 56 | 1011.0 |
| 20260506103035 | 71 | 160 | 11.3 | 0.0 | 0.00 | 0.00 | 0.00 | 56 | 1011.0 |
| 20260506102534 | 71 | 160 | 11.3 | 0.0 | 0.00 | 0.00 | 0.00 | 57 | 1011.0 |
| 20260506102034 | 71 | 160 | 11.3 | 0.0 | 0.00 | 0.00 | 0.00 | 57 | 1011.0 |
| 20260506101532 | 70 | 160 | 11.3 | 0.0 | 0.00 | 0.00 | 0.00 | 60 | 1011.0 |
| 20260506101031 | 70 | 160 | 11.3 | 0.0 | 0.00 | 0.00 | 0.00 | 60 | 1011.0 |
| 20260506100530 | 70 | 160 | 11.3 | 0.0 | 0.00 | 0.00 | 0.00 | 60 | 1011.0 |
| 20260506100029 | 70 | 160 | 11.3 | 0.0 | 0.00 | 0.00 | 0.00 | 60 | 1011.0 |
| 20260506095528 | 70 | 160 | 11.3 | 0.0 | 0.00 | 0.00 | 0.00 | 61 | 1011.0 |
| 20260506095027 | 70 | 160 | 11.3 | 0.0 | 0.00 | 0.00 | 0.00 | 61 | 1011.0 |
| 20260506094526 | 70 | 160 | 11.3 | 0.0 | 0.00 | 0.00 | 0.00 | 60 | 1011.0 |
| 20260506094025 | 70 | 160 | 11.3 | 0.0 | 0.00 | 0.00 | 0.00 | 60 | 1011.0 |
| 20260506093524 | 70 | 160 | 11.3 | 0.0 | 0.00 | 0.00 | 0.00 | 60 | 1011.0 |
| 20260506093023 | 69 | 160 | 11.3 | 0.0 | 0.00 | 0.00 | 0.00 | 61 | 1011.0 |
| 20260506092522 | 69 | 160 | 11.3 | 0.0 | 0.00 | 0.00 | 0.00 | 61 | 1011.0 |
| 20260506092021 | 69 | 160 | 11.3 | 0.0 | 0.00 | 0.00 | 0.00 | 63 | 1011.0 |
| 20260506091520 | 69 | 160 | 11.3 | 0.0 | 0.00 | 0.00 | 0.00 | 63 | 1011.0 |
| 20260506091019 | 68 | 160 | 11.3 | 0.0 | 0.00 | 0.00 | 0.00 | 64 | 1011.0 |
| 20260506090518 | 68 | 160 | 11.3 | 0.0 | 0.00 | 0.00 | 0.00 | 64 | 1011.0 |
| 20260506090017 | 68 | 160 | 11.3 | 0.0 | 0.00 | 0.00 | 0.00 | 64 | 1011.0 |
| 20260506085516 | 68 | 160 | 11.3 | 0.0 | 0.00 | 0.00 | 0.00 | 65 | 1011.0 |
| 20260506085015 | 68 | 160 | 11.3 | 0.0 | 0.00 | 0.00 | 0.00 | 65 | 1011.0 |
| 20260506084514 | 67 | 160 | 11.3 | 0.0 | 0.00 | 0.00 | 0.00 | 64 | 1011.0 |
| 20260506084014 | 67 | 160 | 11.3 | 0.0 | 0.00 | 0.00 | 0.00 | 64 | 1011.0 |
| 20260506083513 | 67 | 160 | 11.3 | 0.0 | 0.00 | 0.00 | 0.00 | 64 | 1011.0 |
| 20260506083012 | 67 | 160 | 11.3 | 0.0 | 0.00 | 0.00 | 0.00 | 60 | 1011.0 |
| 20260506082511 | 67 | 160 | 11.3 | 0.0 | 0.00 | 0.00 | 0.00 | 60 | 1011.0 |
| 20260506082010 | 67 | 160 | 11.3 | 0.0 | 0.00 | 0.00 | 0.00 | 60 | 1011.0 |
| 20260506081509 | 67 | 160 | 11.3 | 0.0 | 0.00 | 0.00 | 0.00 | 60 | 1011.0 |
| 20260506081008 | 66 | 160 | 11.3 | 0.0 | 0.00 | 0.00 | 0.00 | 58 | 1011.0 |
| 20260506080507 | 66 | 160 | 11.3 | 0.0 | 0.00 | 0.00 | 0.00 | 58 | 1011.0 |
| 20260506073501 | 65 | 160 | 11.3 | 0.0 | 0.00 | 0.00 | 0.00 | 57 | 1011.0 |
| 20260506073000 | 63 | 160 | 11.3 | 0.0 | 0.00 | 0.00 | 0.00 | 58 | 1011.0 |
| 20260506072459 | 63 | 160 | 11.3 | 0.0 | 0.00 | 0.00 | 0.00 | 58 | 1011.0 |
| 20260506071958 | 62 | 160 | 11.3 | 0.0 | 0.00 | 0.00 | 0.00 | 59 | 1011.0 |
| 20260506071457 | 62 | 160 | 11.3 | 0.0 | 0.00 | 0.00 | 0.00 | 59 | 1011.0 |
| 20260506070956 | 62 | 160 | 11.3 | 0.0 | 0.00 | 0.00 | 0.00 | 61 | 1011.0 |
| 20260506070455 | 62 | 160 | 11.3 | 0.0 | 0.00 | 0.00 | 0.00 | 61 | 1011.0 |
| 20260506062448 | 60 | 160 | 11.3 | 0.0 | 0.00 | 0.00 | 0.00 | 64 | 1011.0 |
| 20260506061947 | 60 | 160 | 11.3 | 0.0 | 0.00 | 0.00 | 0.00 | 64 | 1011.0 |
| 20260506061446 | 60 | 160 | 11.3 | 0.0 | 0.00 | 0.00 | 0.00 | 62 | 1011.0 |
| 20260506060945 | 60 | 160 | 11.3 | 0.0 | 0.00 | 0.00 | 0.00 | 59 | 1011.0 |
| 20260506060444 | 60 | 160 | 11.3 | 0.0 | 0.00 | 0.00 | 0.00 | 58 | 1011.0 |
| 20260506050933 | 59 | 160 | 11.3 | 0.0 | 0.00 | 0.00 | 0.00 | 61 | 1010.0 |
| 20260506050432 | 58 | 160 | 11.3 | 0.0 | 0.00 | 0.00 | 0.00 | 65 | 1010.0 |
| 20260506044930 | 58 | 160 | 11.3 | 0.0 | 0.00 | 0.00 | 0.00 | 66 | 1010.0 |
| 20260506044429 | 58 | 160 | 11.3 | 0.0 | 0.00 | 0.00 | 0.00 | 66 | 1010.0 |
| 20260506043928 | 58 | 160 | 11.3 | 0.0 | 0.00 | 0.00 | 0.00 | 66 | 1010.0 |
| 20260506043427 | 58 | 160 | 11.3 | 0.0 | 0.00 | 0.00 | 0.00 | 66 | 1010.0 |
| 20260506042926 | 58 | 160 | 11.3 | 0.0 | 0.00 | 0.00 | 0.00 | 66 | 1010.0 |
| 20260506042425 | 58 | 160 | 11.3 | 0.0 | 0.00 | 0.00 | 0.00 | 66 | 1010.0 |
| 20260506041924 | 59 | 160 | 11.3 | 0.0 | 0.00 | 0.00 | 0.00 | 66 | 1010.0 |
| 20260506041423 | 59 | 160 | 11.3 | 0.0 | 0.00 | 0.00 | 0.00 | 66 | 1010.0 |
| 20260506040922 | 59 | 160 | 11.3 | 0.0 | 0.00 | 0.00 | 0.00 | 66 | 1010.0 |
| 20260506040421 | 59 | 160 | 11.3 | 0.0 | 0.00 | 0.00 | 0.00 | 66 | 1010.0 |
| 20260506035920 | 59 | 160 | 11.3 | 0.0 | 0.00 | 0.00 | 0.00 | 66 | 1010.0 |
| 20260506035419 | 59 | 160 | 11.3 | 0.0 | 0.00 | 0.00 | 0.00 | 67 | 1010.0 |
| 20260506034918 | 59 | 160 | 11.3 | 0.0 | 0.00 | 0.00 | 0.00 | 67 | 1010.0 |
| 20260506034417 | 59 | 160 | 11.3 | 0.0 | 0.00 | 0.00 | 0.00 | 68 | 1010.0 |
| 20260506033916 | 59 | 160 | 11.3 | 0.0 | 0.00 | 0.00 | 0.00 | 68 | 1010.0 |
| 20260506033415 | 59 | 160 | 11.3 | 0.0 | 0.00 | 0.00 | 0.00 | 68 | 1010.0 |
| 20260506032914 | 59 | 160 | 11.3 | 0.0 | 0.00 | 0.00 | 0.00 | 68 | 1010.0 |
| 20260506032414 | 59 | 160 | 11.3 | 0.0 | 0.00 | 0.00 | 0.00 | 68 | 1010.0 |
| 20260506031913 | 59 | 160 | 11.3 | 0.0 | 0.00 | 0.00 | 0.00 | 67 | 1010.0 |
| 20260506031412 | 59 | 160 | 11.3 | 0.0 | 0.00 | 0.00 | 0.00 | 67 | 1010.0 |
| 20260506030911 | 60 | 160 | 11.3 | 0.0 | 0.00 | 0.00 | 0.00 | 65 | 1010.0 |
| 20260506030410 | 60 | 160 | 11.3 | 0.0 | 0.00 | 0.00 | 0.00 | 65 | 1010.0 |
| 20260506025909 | 60 | 160 | 11.3 | 0.0 | 0.00 | 0.00 | 0.00 | 65 | 1010.0 |
| 20260506025408 | 60 | 160 | 11.3 | 0.0 | 0.00 | 0.00 | 0.00 | 65 | 1010.0 |
| 20260506024907 | 60 | 160 | 11.3 | 0.0 | 0.00 | 0.00 | 0.00 | 66 | 1010.0 |
| 20260506024406 | 60 | 160 | 11.3 | 0.0 | 0.00 | 0.00 | 0.00 | 66 | 1010.0 |
| 20260506023905 | 60 | 160 | 11.3 | 0.0 | 0.00 | 0.00 | 0.00 | 66 | 1010.0 |
| 20260506023404 | 60 | 160 | 11.3 | 0.0 | 0.00 | 0.00 | 0.00 | 66 | 1010.0 |
| 20260506022903 | 60 | 160 | 11.3 | 0.0 | 0.00 | 0.00 | 0.00 | 68 | 1010.0 |
| 20260506022402 | 60 | 160 | 11.3 | 0.0 | 0.00 | 0.00 | 0.00 | 68 | 1010.0 |
| 20260506021901 | 61 | 160 | 11.3 | 0.0 | 0.00 | 0.00 | 0.00 | 66 | 1010.0 |
| 20260506021401 | 61 | 160 | 11.3 | 0.0 | 0.00 | 0.00 | 0.00 | 66 | 1010.0 |
| 20260506020900 | 61 | 160 | 11.3 | 0.0 | 0.00 | 0.00 | 0.00 | 67 | 1010.0 |
| 20260506020359 | 61 | 160 | 11.3 | 0.0 | 0.00 | 0.00 | 0.00 | 67 | 1010.0 |
| 20260506015858 | 61 | 160 | 11.3 | 0.0 | 0.00 | 0.00 | 0.00 | 70 | 1010.0 |
| 20260506015357 | 61 | 160 | 11.3 | 0.0 | 0.00 | 0.00 | 0.00 | 70 | 1010.0 |
| 20260506014856 | 61 | 160 | 11.3 | 0.0 | 0.00 | 0.00 | 0.00 | 72 | 1010.0 |
| 20260506014355 | 61 | 160 | 11.3 | 0.0 | 0.00 | 0.00 | 0.00 | 72 | 1010.0 |
| 20260506013854 | 61 | 160 | 11.3 | 0.0 | 0.00 | 0.00 | 0.00 | 73 | 1010.0 |